sensor_id;sensor_type;location;lat;lon;timestamp;P1;durP1;ratioP1;P2;durP2;ratioP2
65279;SDS011;51878;55.748;48.742;2023-08-06T00:04:45;14.05;;;10.05;;
65279;SDS011;51878;55.748;48.742;2023-08-06T00:09:47;12.23;;;10.15;;
65279;SDS011;51878;55.748;48.742;2023-08-06T00:14:52;11.65;;;10.20;;
65279;SDS011;51878;55.748;48.742;2023-08-06T00:19:55;13.10;;;9.88;;
65279;SDS011;51878;55.748;48.742;2023-08-06T00:24:57;13.07;;;9.13;;
65279;SDS011;51878;55.748;48.742;2023-08-06T00:29:59;12.80;;;9.25;;
65279;SDS011;51878;55.748;48.742;2023-08-06T00:35:06;9.82;;;8.15;;
65279;SDS011;51878;55.748;48.742;2023-08-06T00:40:08;11.32;;;9.18;;
65279;SDS011;51878;55.748;48.742;2023-08-06T00:45:11;10.55;;;8.70;;
65279;SDS011;51878;55.748;48.742;2023-08-06T00:50:13;14.57;;;9.40;;
65279;SDS011;51878;55.748;48.742;2023-08-06T00:55:15;11.52;;;9.65;;
65279;SDS011;51878;55.748;48.742;2023-08-06T01:00:18;10.38;;;9.27;;
65279;SDS011;51878;55.748;48.742;2023-08-06T01:05:25;12.70;;;8.98;;
65279;SDS011;51878;55.748;48.742;2023-08-06T01:10:32;12.32;;;9.43;;
65279;SDS011;51878;55.748;48.742;2023-08-06T01:16:01;11.32;;;8.80;;
65279;SDS011;51878;55.748;48.742;2023-08-06T01:21:05;11.30;;;9.95;;
65279;SDS011;51878;55.748;48.742;2023-08-06T01:26:13;16.30;;;11.90;;
65279;SDS011;51878;55.748;48.742;2023-08-06T01:31:24;14.75;;;11.65;;
65279;SDS011;51878;55.748;48.742;2023-08-06T01:36:32;14.60;;;11.27;;
65279;SDS011;51878;55.748;48.742;2023-08-06T01:41:35;19.23;;;10.48;;
65279;SDS011;51878;55.748;48.742;2023-08-06T01:46:37;16.45;;;11.02;;
65279;SDS011;51878;55.748;48.742;2023-08-06T01:51:40;12.25;;;10.95;;
65279;SDS011;51878;55.748;48.742;2023-08-06T01:56:42;14.75;;;12.48;;
65279;SDS011;51878;55.748;48.742;2023-08-06T02:01:44;14.10;;;11.15;;
65279;SDS011;51878;55.748;48.742;2023-08-06T02:06:47;15.25;;;10.63;;
65279;SDS011;51878;55.748;48.742;2023-08-06T02:11:49;14.98;;;10.65;;
65279;SDS011;51878;55.748;48.742;2023-08-06T02:16:51;14.85;;;11.20;;
65279;SDS011;51878;55.748;48.742;2023-08-06T02:21:54;15.35;;;9.13;;
65279;SDS011;51878;55.748;48.742;2023-08-06T02:26:56;9.45;;;8.45;;
65279;SDS011;51878;55.748;48.742;2023-08-06T02:31:58;9.80;;;7.40;;
65279;SDS011;51878;55.748;48.742;2023-08-06T02:37:03;11.18;;;7.63;;
65279;SDS011;51878;55.748;48.742;2023-08-06T02:42:08;7.97;;;6.90;;
65279;SDS011;51878;55.748;48.742;2023-08-06T02:47:11;10.57;;;7.72;;
65279;SDS011;51878;55.748;48.742;2023-08-06T02:52:13;10.10;;;7.82;;
65279;SDS011;51878;55.748;48.742;2023-08-06T02:57:15;10.75;;;8.57;;
65279;SDS011;51878;55.748;48.742;2023-08-06T03:02:17;11.40;;;8.77;;
65279;SDS011;51878;55.748;48.742;2023-08-06T03:07:20;9.82;;;8.82;;
65279;SDS011;51878;55.748;48.742;2023-08-06T03:12:22;13.13;;;9.60;;
65279;SDS011;51878;55.748;48.742;2023-08-06T03:17:24;10.50;;;8.68;;
65279;SDS011;51878;55.748;48.742;2023-08-06T03:22:26;12.80;;;7.30;;
65279;SDS011;51878;55.748;48.742;2023-08-06T03:27:29;9.23;;;7.70;;
65279;SDS011;51878;55.748;48.742;2023-08-06T03:32:31;10.50;;;7.22;;
65279;SDS011;51878;55.748;48.742;2023-08-06T03:37:33;9.02;;;7.20;;
65279;SDS011;51878;55.748;48.742;2023-08-06T03:42:36;8.27;;;7.45;;
65279;SDS011;51878;55.748;48.742;2023-08-06T03:47:38;9.05;;;6.85;;
65279;SDS011;51878;55.748;48.742;2023-08-06T03:52:40;8.43;;;6.70;;
65279;SDS011;51878;55.748;48.742;2023-08-06T03:57:42;8.15;;;7.05;;
65279;SDS011;51878;55.748;48.742;2023-08-06T04:02:44;8.90;;;6.47;;
65279;SDS011;51878;55.748;48.742;2023-08-06T04:07:47;8.70;;;5.60;;
65279;SDS011;51878;55.748;48.742;2023-08-06T04:12:49;6.68;;;5.70;;
65279;SDS011;51878;55.748;48.742;2023-08-06T04:17:51;7.30;;;5.00;;
65279;SDS011;51878;55.748;48.742;2023-08-06T04:22:54;6.32;;;4.38;;
65279;SDS011;51878;55.748;48.742;2023-08-06T04:27:57;6.22;;;3.95;;
65279;SDS011;51878;55.748;48.742;2023-08-06T04:32:59;8.57;;;3.88;;
65279;SDS011;51878;55.748;48.742;2023-08-06T04:38:01;6.60;;;3.95;;
65279;SDS011;51878;55.748;48.742;2023-08-06T04:43:04;6.60;;;4.25;;
65279;SDS011;51878;55.748;48.742;2023-08-06T04:48:06;7.20;;;4.07;;
65279;SDS011;51878;55.748;48.742;2023-08-06T04:53:08;4.25;;;3.58;;
65279;SDS011;51878;55.748;48.742;2023-08-06T04:58:11;5.28;;;3.58;;
65279;SDS011;51878;55.748;48.742;2023-08-06T05:03:16;5.00;;;3.20;;
65279;SDS011;51878;55.748;48.742;2023-08-06T05:08:19;5.50;;;3.30;;
65279;SDS011;51878;55.748;48.742;2023-08-06T05:13:21;7.55;;;3.72;;
65279;SDS011;51878;55.748;48.742;2023-08-06T05:18:26;3.78;;;3.38;;
65279;SDS011;51878;55.748;48.742;2023-08-06T05:23:28;9.70;;;3.50;;
65279;SDS011;51878;55.748;48.742;2023-08-06T05:28:31;6.78;;;3.47;;
65279;SDS011;51878;55.748;48.742;2023-08-06T05:33:33;9.40;;;3.33;;
65279;SDS011;51878;55.748;48.742;2023-08-06T05:38:35;4.95;;;3.45;;
65279;SDS011;51878;55.748;48.742;2023-08-06T05:43:39;6.53;;;3.25;;
65279;SDS011;51878;55.748;48.742;2023-08-06T05:48:43;6.03;;;3.53;;
65279;SDS011;51878;55.748;48.742;2023-08-06T05:53:46;4.60;;;2.72;;
65279;SDS011;51878;55.748;48.742;2023-08-06T05:58:48;3.60;;;2.78;;
65279;SDS011;51878;55.748;48.742;2023-08-06T06:03:55;4.95;;;3.50;;
65279;SDS011;51878;55.748;48.742;2023-08-06T06:08:57;13.95;;;3.40;;
65279;SDS011;51878;55.748;48.742;2023-08-06T06:14:02;6.13;;;3.20;;
65279;SDS011;51878;55.748;48.742;2023-08-06T06:19:04;4.15;;;3.05;;
65279;SDS011;51878;55.748;48.742;2023-08-06T06:24:10;4.65;;;3.42;;
65279;SDS011;51878;55.748;48.742;2023-08-06T06:29:12;5.75;;;2.58;;
65279;SDS011;51878;55.748;48.742;2023-08-06T06:34:14;5.50;;;2.80;;
65279;SDS011;51878;55.748;48.742;2023-08-06T06:39:17;4.95;;;2.47;;
65279;SDS011;51878;55.748;48.742;2023-08-06T06:44:19;5.55;;;2.53;;
65279;SDS011;51878;55.748;48.742;2023-08-06T06:49:22;10.95;;;2.50;;
65279;SDS011;51878;55.748;48.742;2023-08-06T06:54:25;5.07;;;2.35;;
65279;SDS011;51878;55.748;48.742;2023-08-06T06:59:27;2.47;;;2.20;;
65279;SDS011;51878;55.748;48.742;2023-08-06T07:04:29;4.10;;;2.00;;
65279;SDS011;51878;55.748;48.742;2023-08-06T07:09:31;3.28;;;2.15;;
65279;SDS011;51878;55.748;48.742;2023-08-06T07:14:34;5.35;;;2.20;;
65279;SDS011;51878;55.748;48.742;2023-08-06T07:19:36;4.15;;;1.70;;
65279;SDS011;51878;55.748;48.742;2023-08-06T07:24:38;3.72;;;1.80;;
65279;SDS011;51878;55.748;48.742;2023-08-06T07:29:41;3.40;;;1.73;;
65279;SDS011;51878;55.748;48.742;2023-08-06T07:34:43;2.95;;;1.60;;
65279;SDS011;51878;55.748;48.742;2023-08-06T07:39:45;6.10;;;1.92;;
65279;SDS011;51878;55.748;48.742;2023-08-06T07:44:54;4.32;;;1.63;;
65279;SDS011;51878;55.748;48.742;2023-08-06T07:49:57;2.67;;;1.55;;
65279;SDS011;51878;55.748;48.742;2023-08-06T07:55:00;4.15;;;1.80;;
65279;SDS011;51878;55.748;48.742;2023-08-06T08:00:04;2.42;;;1.70;;
65279;SDS011;51878;55.748;48.742;2023-08-06T08:05:07;3.20;;;1.55;;
65279;SDS011;51878;55.748;48.742;2023-08-06T08:10:10;6.07;;;1.50;;
65279;SDS011;51878;55.748;48.742;2023-08-06T08:15:12;2.08;;;1.40;;
65279;SDS011;51878;55.748;48.742;2023-08-06T08:20:15;3.35;;;1.80;;
65279;SDS011;51878;55.748;48.742;2023-08-06T08:25:18;5.68;;;1.83;;
65279;SDS011;51878;55.748;48.742;2023-08-06T08:30:21;3.15;;;1.70;;
65279;SDS011;51878;55.748;48.742;2023-08-06T08:35:23;4.22;;;1.60;;
65279;SDS011;51878;55.748;48.742;2023-08-06T08:40:27;4.38;;;1.58;;
65279;SDS011;51878;55.748;48.742;2023-08-06T08:50:39;2.35;;;1.35;;
65279;SDS011;51878;55.748;48.742;2023-08-06T08:55:47;2.25;;;1.50;;
65279;SDS011;51878;55.748;48.742;2023-08-06T09:00:50;3.88;;;1.80;;
65279;SDS011;51878;55.748;48.742;2023-08-06T09:05:53;1.55;;;1.40;;
65279;SDS011;51878;55.748;48.742;2023-08-06T09:10:58;2.58;;;1.70;;
65279;SDS011;51878;55.748;48.742;2023-08-06T09:16:03;2.88;;;1.67;;
65279;SDS011;51878;55.748;48.742;2023-08-06T09:21:06;2.80;;;1.70;;
65279;SDS011;51878;55.748;48.742;2023-08-06T09:26:17;2.72;;;1.60;;
65279;SDS011;51878;55.748;48.742;2023-08-06T09:31:22;6.47;;;1.55;;
65279;SDS011;51878;55.748;48.742;2023-08-06T09:36:25;1.92;;;1.45;;
65279;SDS011;51878;55.748;48.742;2023-08-06T09:41:27;4.10;;;1.70;;
65279;SDS011;51878;55.748;48.742;2023-08-06T09:46:32;3.13;;;1.65;;
65279;SDS011;51878;55.748;48.742;2023-08-06T09:51:34;2.45;;;1.42;;
65279;SDS011;51878;55.748;48.742;2023-08-06T09:56:41;1.88;;;1.50;;
65279;SDS011;51878;55.748;48.742;2023-08-06T10:01:45;1.50;;;1.40;;
65279;SDS011;51878;55.748;48.742;2023-08-06T10:06:48;3.10;;;1.70;;
65279;SDS011;51878;55.748;48.742;2023-08-06T10:11:50;3.83;;;1.70;;
65279;SDS011;51878;55.748;48.742;2023-08-06T10:16:56;3.78;;;1.52;;
65279;SDS011;51878;55.748;48.742;2023-08-06T10:27:13;2.55;;;1.50;;
65279;SDS011;51878;55.748;48.742;2023-08-06T10:32:15;4.32;;;1.60;;
65279;SDS011;51878;55.748;48.742;2023-08-06T10:37:20;4.13;;;1.77;;
65279;SDS011;51878;55.748;48.742;2023-08-06T10:42:28;3.53;;;1.70;;
65279;SDS011;51878;55.748;48.742;2023-08-06T10:47:40;2.85;;;1.38;;
65279;SDS011;51878;55.748;48.742;2023-08-06T10:52:47;4.38;;;1.58;;
65279;SDS011;51878;55.748;48.742;2023-08-06T10:57:54;1.70;;;1.60;;
65279;SDS011;51878;55.748;48.742;2023-08-06T11:02:57;4.72;;;1.30;;
65279;SDS011;51878;55.748;48.742;2023-08-06T11:08:29;3.55;;;1.50;;
65279;SDS011;51878;55.748;48.742;2023-08-06T11:13:35;1.92;;;1.30;;
65279;SDS011;51878;55.748;48.742;2023-08-06T11:18:37;2.83;;;1.38;;
65279;SDS011;51878;55.748;48.742;2023-08-06T11:23:42;3.88;;;1.67;;
65279;SDS011;51878;55.748;48.742;2023-08-06T11:28:45;1.73;;;1.40;;
65279;SDS011;51878;55.748;48.742;2023-08-06T11:33:47;4.53;;;1.50;;
65279;SDS011;51878;55.748;48.742;2023-08-06T11:38:51;2.72;;;1.30;;
65279;SDS011;51878;55.748;48.742;2023-08-06T11:43:54;3.08;;;1.48;;
65279;SDS011;51878;55.748;48.742;2023-08-06T11:48:58;2.20;;;1.30;;
65279;SDS011;51878;55.748;48.742;2023-08-06T11:54:01;1.88;;;1.40;;
65279;SDS011;51878;55.748;48.742;2023-08-06T11:59:04;5.22;;;1.30;;
65279;SDS011;51878;55.748;48.742;2023-08-06T12:04:07;4.32;;;1.33;;
65279;SDS011;51878;55.748;48.742;2023-08-06T12:09:09;2.88;;;1.45;;
65279;SDS011;51878;55.748;48.742;2023-08-06T12:14:12;4.68;;;1.90;;
65279;SDS011;51878;55.748;48.742;2023-08-06T12:19:14;2.08;;;1.27;;
65279;SDS011;51878;55.748;48.742;2023-08-06T12:24:16;2.30;;;1.50;;
65279;SDS011;51878;55.748;48.742;2023-08-06T12:29:19;2.28;;;1.38;;
65279;SDS011;51878;55.748;48.742;2023-08-06T12:34:21;1.80;;;1.25;;
65279;SDS011;51878;55.748;48.742;2023-08-06T12:39:26;2.60;;;1.60;;
65279;SDS011;51878;55.748;48.742;2023-08-06T12:44:30;1.63;;;1.23;;
65279;SDS011;51878;55.748;48.742;2023-08-06T12:49:33;4.25;;;1.23;;
65279;SDS011;51878;55.748;48.742;2023-08-06T12:54:35;4.03;;;1.50;;
65279;SDS011;51878;55.748;48.742;2023-08-06T12:59:41;2.60;;;1.30;;
65279;SDS011;51878;55.748;48.742;2023-08-06T13:04:43;1.95;;;1.40;;
65279;SDS011;51878;55.748;48.742;2023-08-06T13:09:48;4.88;;;1.45;;
65279;SDS011;51878;55.748;48.742;2023-08-06T13:14:50;6.18;;;1.40;;
65279;SDS011;51878;55.748;48.742;2023-08-06T13:19:54;2.92;;;1.40;;
65279;SDS011;51878;55.748;48.742;2023-08-06T13:24:56;5.32;;;1.50;;
65279;SDS011;51878;55.748;48.742;2023-08-06T13:29:59;2.25;;;1.60;;
65279;SDS011;51878;55.748;48.742;2023-08-06T13:35:01;1.73;;;1.50;;
65279;SDS011;51878;55.748;48.742;2023-08-06T13:40:04;3.72;;;1.45;;
65279;SDS011;51878;55.748;48.742;2023-08-06T13:45:07;3.45;;;1.50;;
65279;SDS011;51878;55.748;48.742;2023-08-06T13:50:10;3.33;;;1.45;;
65279;SDS011;51878;55.748;48.742;2023-08-06T13:55:12;1.67;;;1.58;;
65279;SDS011;51878;55.748;48.742;2023-08-06T14:00:14;2.13;;;1.50;;
65279;SDS011;51878;55.748;48.742;2023-08-06T14:05:17;2.90;;;1.40;;
65279;SDS011;51878;55.748;48.742;2023-08-06T14:10:19;5.25;;;1.70;;
65279;SDS011;51878;55.748;48.742;2023-08-06T14:15:21;4.20;;;1.60;;
65279;SDS011;51878;55.748;48.742;2023-08-06T14:20:26;4.30;;;1.50;;
65279;SDS011;51878;55.748;48.742;2023-08-06T14:25:29;3.60;;;1.58;;
65279;SDS011;51878;55.748;48.742;2023-08-06T14:30:31;3.33;;;1.50;;
65279;SDS011;51878;55.748;48.742;2023-08-06T14:35:35;5.45;;;1.60;;
65279;SDS011;51878;55.748;48.742;2023-08-06T14:40:37;3.67;;;1.42;;
65279;SDS011;51878;55.748;48.742;2023-08-06T14:45:41;3.85;;;1.60;;
65279;SDS011;51878;55.748;48.742;2023-08-06T14:50:43;3.22;;;1.30;;
65279;SDS011;51878;55.748;48.742;2023-08-06T14:55:46;3.80;;;1.75;;
65279;SDS011;51878;55.748;48.742;2023-08-06T15:00:48;4.15;;;1.67;;
65279;SDS011;51878;55.748;48.742;2023-08-06T15:05:50;6.05;;;2.30;;
65279;SDS011;51878;55.748;48.742;2023-08-06T15:10:52;3.58;;;1.52;;
65279;SDS011;51878;55.748;48.742;2023-08-06T15:15:55;2.13;;;1.42;;
65279;SDS011;51878;55.748;48.742;2023-08-06T15:20:57;5.88;;;1.60;;
65279;SDS011;51878;55.748;48.742;2023-08-06T15:25:59;3.45;;;1.95;;
65279;SDS011;51878;55.748;48.742;2023-08-06T15:31:02;2.53;;;1.63;;
65279;SDS011;51878;55.748;48.742;2023-08-06T15:36:06;3.20;;;1.98;;
65279;SDS011;51878;55.748;48.742;2023-08-06T15:41:09;4.65;;;1.85;;
65279;SDS011;51878;55.748;48.742;2023-08-06T15:46:11;5.20;;;1.65;;
65279;SDS011;51878;55.748;48.742;2023-08-06T15:51:13;2.03;;;1.45;;
65279;SDS011;51878;55.748;48.742;2023-08-06T15:56:16;3.58;;;1.60;;
65279;SDS011;51878;55.748;48.742;2023-08-06T16:01:18;7.43;;;1.98;;
65279;SDS011;51878;55.748;48.742;2023-08-06T16:06:20;1.80;;;1.70;;
65279;SDS011;51878;55.748;48.742;2023-08-06T16:11:22;6.28;;;2.08;;
65279;SDS011;51878;55.748;48.742;2023-08-06T16:16:25;4.90;;;1.90;;
65279;SDS011;51878;55.748;48.742;2023-08-06T16:21:27;4.07;;;2.13;;
65279;SDS011;51878;55.748;48.742;2023-08-06T16:26:30;3.28;;;2.20;;
65279;SDS011;51878;55.748;48.742;2023-08-06T16:31:33;4.05;;;2.13;;
65279;SDS011;51878;55.748;48.742;2023-08-06T16:36:35;11.48;;;2.63;;
65279;SDS011;51878;55.748;48.742;2023-08-06T16:41:38;6.85;;;2.47;;
65279;SDS011;51878;55.748;48.742;2023-08-06T16:46:40;4.95;;;2.35;;
65279;SDS011;51878;55.748;48.742;2023-08-06T16:51:42;7.63;;;2.40;;
65279;SDS011;51878;55.748;48.742;2023-08-06T16:56:45;2.65;;;1.90;;
65279;SDS011;51878;55.748;48.742;2023-08-06T17:01:47;3.90;;;2.15;;
65279;SDS011;51878;55.748;48.742;2023-08-06T17:06:52;6.20;;;2.50;;
65279;SDS011;51878;55.748;48.742;2023-08-06T17:11:55;4.68;;;2.25;;
65279;SDS011;51878;55.748;48.742;2023-08-06T17:16:57;4.43;;;2.30;;
65279;SDS011;51878;55.748;48.742;2023-08-06T17:22:00;4.97;;;2.25;;
65279;SDS011;51878;55.748;48.742;2023-08-06T17:27:02;7.28;;;2.55;;
65279;SDS011;51878;55.748;48.742;2023-08-06T17:32:05;5.30;;;2.20;;
65279;SDS011;51878;55.748;48.742;2023-08-06T17:37:09;5.93;;;2.40;;
65279;SDS011;51878;55.748;48.742;2023-08-06T17:42:11;2.20;;;2.00;;
65279;SDS011;51878;55.748;48.742;2023-08-06T17:47:13;2.58;;;2.00;;
65279;SDS011;51878;55.748;48.742;2023-08-06T17:52:31;3.38;;;2.30;;
65279;SDS011;51878;55.748;48.742;2023-08-06T17:57:34;4.55;;;2.53;;
65279;SDS011;51878;55.748;48.742;2023-08-06T18:02:36;3.55;;;2.25;;
65279;SDS011;51878;55.748;48.742;2023-08-06T18:07:38;4.07;;;2.22;;
65279;SDS011;51878;55.748;48.742;2023-08-06T18:12:42;6.03;;;1.85;;
65279;SDS011;51878;55.748;48.742;2023-08-06T18:17:44;6.10;;;2.50;;
65279;SDS011;51878;55.748;48.742;2023-08-06T18:22:48;5.90;;;2.08;;
65279;SDS011;51878;55.748;48.742;2023-08-06T18:27:51;7.93;;;1.88;;
65279;SDS011;51878;55.748;48.742;2023-08-06T18:32:53;3.92;;;2.30;;
65279;SDS011;51878;55.748;48.742;2023-08-06T18:37:56;3.78;;;2.05;;
65279;SDS011;51878;55.748;48.742;2023-08-06T18:43:00;5.47;;;2.10;;
65279;SDS011;51878;55.748;48.742;2023-08-06T18:48:03;6.78;;;2.00;;
65279;SDS011;51878;55.748;48.742;2023-08-06T18:53:05;5.38;;;1.80;;
65279;SDS011;51878;55.748;48.742;2023-08-06T18:58:07;5.90;;;1.80;;
65279;SDS011;51878;55.748;48.742;2023-08-06T19:03:11;3.67;;;1.88;;
65279;SDS011;51878;55.748;48.742;2023-08-06T19:08:13;2.13;;;1.70;;
65279;SDS011;51878;55.748;48.742;2023-08-06T19:13:15;7.68;;;2.50;;
65279;SDS011;51878;55.748;48.742;2023-08-06T19:18:18;2.15;;;1.88;;
65279;SDS011;51878;55.748;48.742;2023-08-06T19:23:20;5.28;;;1.70;;
65279;SDS011;51878;55.748;48.742;2023-08-06T19:28:24;5.15;;;1.75;;
65279;SDS011;51878;55.748;48.742;2023-08-06T19:33:27;3.95;;;1.77;;
65279;SDS011;51878;55.748;48.742;2023-08-06T19:38:29;3.80;;;2.05;;
65279;SDS011;51878;55.748;48.742;2023-08-06T19:43:33;3.25;;;1.77;;
65279;SDS011;51878;55.748;48.742;2023-08-06T19:48:36;3.05;;;1.77;;
65279;SDS011;51878;55.748;48.742;2023-08-06T19:53:38;4.10;;;1.70;;
65279;SDS011;51878;55.748;48.742;2023-08-06T19:58:44;4.53;;;1.70;;
65279;SDS011;51878;55.748;48.742;2023-08-06T20:03:46;2.58;;;1.70;;
65279;SDS011;51878;55.748;48.742;2023-08-06T20:08:48;1.75;;;1.60;;
65279;SDS011;51878;55.748;48.742;2023-08-06T20:13:51;2.78;;;2.00;;
65279;SDS011;51878;55.748;48.742;2023-08-06T20:18:53;3.33;;;1.80;;
65279;SDS011;51878;55.748;48.742;2023-08-06T20:23:55;3.72;;;1.85;;
65279;SDS011;51878;55.748;48.742;2023-08-06T20:28:58;4.20;;;1.95;;
65279;SDS011;51878;55.748;48.742;2023-08-06T20:34:00;2.42;;;2.00;;
65279;SDS011;51878;55.748;48.742;2023-08-06T20:39:03;1.73;;;1.50;;
65279;SDS011;51878;55.748;48.742;2023-08-06T20:44:05;4.22;;;2.00;;
65279;SDS011;51878;55.748;48.742;2023-08-06T20:49:07;2.65;;;1.92;;
65279;SDS011;51878;55.748;48.742;2023-08-06T20:54:09;1.92;;;1.70;;
65279;SDS011;51878;55.748;48.742;2023-08-06T20:59:12;3.85;;;1.80;;
65279;SDS011;51878;55.748;48.742;2023-08-06T21:04:14;7.50;;;2.00;;
65279;SDS011;51878;55.748;48.742;2023-08-06T21:09:16;4.45;;;2.17;;
65279;SDS011;51878;55.748;48.742;2023-08-06T21:14:18;6.68;;;1.92;;
65279;SDS011;51878;55.748;48.742;2023-08-06T21:19:21;6.07;;;2.30;;
65279;SDS011;51878;55.748;48.742;2023-08-06T21:24:23;2.85;;;2.00;;
65279;SDS011;51878;55.748;48.742;2023-08-06T21:29:25;6.45;;;1.67;;
65279;SDS011;51878;55.748;48.742;2023-08-06T21:34:30;5.00;;;2.10;;
65279;SDS011;51878;55.748;48.742;2023-08-06T21:39:33;4.07;;;1.90;;
65279;SDS011;51878;55.748;48.742;2023-08-06T21:44:36;2.42;;;1.95;;
65279;SDS011;51878;55.748;48.742;2023-08-06T21:49:38;3.97;;;1.80;;
65279;SDS011;51878;55.748;48.742;2023-08-06T21:54:40;3.92;;;2.03;;
65279;SDS011;51878;55.748;48.742;2023-08-06T21:59:43;2.33;;;1.70;;
65279;SDS011;51878;55.748;48.742;2023-08-06T22:04:45;6.10;;;1.90;;
65279;SDS011;51878;55.748;48.742;2023-08-06T22:09:47;3.58;;;2.00;;
65279;SDS011;51878;55.748;48.742;2023-08-06T22:14:49;2.63;;;1.85;;
65279;SDS011;51878;55.748;48.742;2023-08-06T22:19:52;2.15;;;1.75;;
65279;SDS011;51878;55.748;48.742;2023-08-06T22:24:54;2.33;;;1.90;;
65279;SDS011;51878;55.748;48.742;2023-08-06T22:29:56;2.58;;;1.70;;
65279;SDS011;51878;55.748;48.742;2023-08-06T22:34:58;4.00;;;2.00;;
65279;SDS011;51878;55.748;48.742;2023-08-06T22:40:01;3.42;;;1.70;;
65279;SDS011;51878;55.748;48.742;2023-08-06T22:45:08;1.77;;;1.63;;
65279;SDS011;51878;55.748;48.742;2023-08-06T22:50:11;2.60;;;1.70;;
65279;SDS011;51878;55.748;48.742;2023-08-06T22:55:13;2.92;;;1.90;;
65279;SDS011;51878;55.748;48.742;2023-08-06T23:00:30;2.28;;;1.58;;
65279;SDS011;51878;55.748;48.742;2023-08-06T23:05:33;1.63;;;1.52;;
65279;SDS011;51878;55.748;48.742;2023-08-06T23:10:35;4.60;;;1.80;;
65279;SDS011;51878;55.748;48.742;2023-08-06T23:15:37;5.30;;;2.10;;
65279;SDS011;51878;55.748;48.742;2023-08-06T23:20:39;3.08;;;1.85;;
65279;SDS011;51878;55.748;48.742;2023-08-06T23:25:42;4.25;;;2.00;;
65279;SDS011;51878;55.748;48.742;2023-08-06T23:30:44;4.03;;;1.90;;
65279;SDS011;51878;55.748;48.742;2023-08-06T23:35:51;3.53;;;2.17;;
65279;SDS011;51878;55.748;48.742;2023-08-06T23:40:53;4.03;;;1.90;;
65279;SDS011;51878;55.748;48.742;2023-08-06T23:45:55;3.45;;;1.88;;
65279;SDS011;51878;55.748;48.742;2023-08-06T23:51:00;2.90;;;1.80;;
65279;SDS011;51878;55.748;48.742;2023-08-06T23:56:02;2.60;;;1.90;;
